Time;durP1;ratioP1;P1;durP2;ratioP2;P2;SDS_P1;SDS_P2;PMS_P1;PMS_P2;Temp;Humidity;BMP_temperature;BMP_pressure;BME280_temperature;BME280_humidity;BME280_pressure;Samples;Min_cycle;Max_cycle;Signal;HPM_P1;HPM_P2
2022/03/30 00:01:16;;;;;;;0.10;0.10;;;8.80;99.90;;;;;;5077612;28;20041;-75
2022/03/30 00:03:42;;;;;;;0.10;0.10;;;8.90;99.90;;;;;;5077726;28;20047;-74
2022/03/30 00:06:07;;;;;;;0.10;0.10;;;8.80;99.90;;;;;;5077506;28;20032;-74
2022/03/30 00:08:33;;;;;;;0.20;0.20;;;8.80;99.90;;;;;;5076920;28;20119;-74
2022/03/30 00:11:00;;;;;;;0.20;0.20;;;8.80;99.90;;;;;;5077665;28;20040;-74
2022/03/30 00:13:27;;;;;;;0.13;0.13;;;8.90;99.90;;;;;;5076017;28;20045;-74
2022/03/30 00:15:53;;;;;;;0.77;0.32;;;8.90;99.90;;;;;;5077462;28;20039;-75
2022/03/30 00:18:19;;;;;;;0.32;0.32;;;8.90;99.90;;;;;;5077169;28;20040;-74
2022/03/30 00:20:46;;;;;;;1.17;0.93;;;8.90;99.90;;;;;;5077203;28;20029;-74
2022/03/30 00:23:11;;;;;;;0.45;0.40;;;8.90;99.90;;;;;;5077110;28;20502;-74
2022/03/30 00:25:37;;;;;;;0.10;0.10;;;8.90;99.90;;;;;;5077137;28;20040;-74
2022/03/30 00:28:04;;;;;;;0.10;0.10;;;8.80;99.90;;;;;;5076719;28;20078;-74
2022/03/30 00:30:31;;;;;;;0.10;0.10;;;8.80;99.90;;;;;;5077273;28;20037;-74
2022/03/30 00:32:57;;;;;;;0.17;0.10;;;8.80;99.90;;;;;;5076932;28;20040;-74
2022/03/30 00:35:23;;;;;;;0.22;0.22;;;8.80;99.90;;;;;;5077541;28;20085;-74
2022/03/30 00:37:49;;;;;;;0.20;0.20;;;8.80;99.90;;;;;;5076500;28;20555;-74
2022/03/30 00:40:16;;;;;;;0.20;0.20;;;8.80;99.90;;;;;;5076908;28;20066;-74
2022/03/30 00:42:42;;;;;;;0.10;0.10;;;8.70;99.90;;;;;;5076230;28;20131;-74
2022/03/30 00:45:17;;;;;;;1.08;0.40;;;8.70;99.90;;;;;;5077351;28;20068;-75
2022/03/30 00:47:43;;;;;;;0.13;0.13;;;8.80;99.90;;;;;;5077045;28;20048;-74
2022/03/30 00:50:12;;;;;;;0.10;0.10;;;8.80;99.90;;;;;;5076684;28;20041;-75
2022/03/30 00:52:38;;;;;;;0.30;0.30;;;8.80;99.90;;;;;;5058763;28;20422;-74
2022/03/30 00:55:06;;;;;;;0.45;0.45;;;8.70;99.90;;;;;;5076695;28;20052;-74
2022/03/30 00:57:33;;;;;;;0.10;0.10;;;8.70;99.90;;;;;;5076170;28;20039;-74
2022/03/30 00:59:59;;;;;;;0.20;0.20;;;8.80;99.90;;;;;;5076231;28;20043;-75
2022/03/30 01:02:25;;;;;;;0.52;0.30;;;8.90;99.90;;;;;;5076586;28;20033;-74
2022/03/30 01:04:52;;;;;;;0.10;0.10;;;8.90;99.90;;;;;;5076661;28;20036;-74
2022/03/30 01:07:18;;;;;;;0.20;0.20;;;8.80;99.90;;;;;;5076350;28;20571;-74
2022/03/30 01:09:44;;;;;;;0.10;0.10;;;8.80;99.90;;;;;;5076308;28;20123;-75
2022/03/30 01:12:13;;;;;;;0.10;0.10;;;8.90;99.90;;;;;;5076762;28;20111;-74
2022/03/30 01:14:39;;;;;;;0.32;0.32;;;8.80;99.90;;;;;;5076207;28;20041;-74
2022/03/30 01:17:06;;;;;;;0.10;0.10;;;8.80;99.90;;;;;;5076014;28;20036;-74
2022/03/30 01:19:34;;;;;;;0.20;0.20;;;8.70;99.90;;;;;;5075990;28;20036;-74
2022/03/30 01:22:00;;;;;;;0.35;0.35;;;8.70;99.90;;;;;;5075538;28;20562;-74
2022/03/30 01:24:27;;;;;;;0.13;0.13;;;8.80;99.90;;;;;;5075735;28;20590;-75
2022/03/30 01:26:53;;;;;;;0.35;0.35;;;8.70;99.90;;;;;;5075966;28;20086;-74
2022/03/30 01:34:49;;;;;;;0.20;0.20;;;8.70;99.90;;;;;;5075446;28;20067;-74
2022/03/30 01:37:15;;;;;;;1.23;0.68;;;8.70;99.90;;;;;;5075794;28;20075;-74
2022/03/30 01:39:42;;;;;;;0.52;0.52;;;8.60;99.90;;;;;;5075767;28;20044;-74
2022/03/30 01:42:09;;;;;;;0.50;0.50;;;8.80;99.90;;;;;;5076183;28;20050;-74
2022/03/30 01:44:36;;;;;;;0.10;0.10;;;8.80;99.90;;;;;;5076154;28;20051;-74
2022/03/30 01:47:02;;;;;;;0.43;0.43;;;8.70;99.90;;;;;;5075511;28;20114;-74
2022/03/30 01:49:28;;;;;;;0.20;0.20;;;8.70;99.90;;;;;;5075900;28;20044;-74
2022/03/30 01:51:56;;;;;;;0.30;0.30;;;8.80;99.90;;;;;;5075626;28;20044;-74
2022/03/30 01:54:24;;;;;;;0.10;0.10;;;8.70;99.90;;;;;;5075713;28;20482;-75
2022/03/30 01:56:51;;;;;;;0.10;0.10;;;8.70;99.90;;;;;;5075082;28;20062;-74
2022/03/30 01:59:18;;;;;;;0.25;0.25;;;8.80;99.90;;;;;;5075321;28;20048;-74
2022/03/30 02:01:44;;;;;;;0.20;0.20;;;8.70;99.90;;;;;;5075333;28;20066;-74
2022/03/30 02:04:10;;;;;;;0.20;0.20;;;8.80;99.90;;;;;;5075281;28;20144;-74
2022/03/30 02:06:37;;;;;;;0.10;0.10;;;8.70;99.90;;;;;;5075100;28;20491;-74
2022/03/30 02:09:04;;;;;;;0.20;0.20;;;8.70;99.90;;;;;;5075157;28;20036;-74
2022/03/30 02:11:31;;;;;;;0.38;0.38;;;8.70;99.90;;;;;;5075164;28;20124;-74
2022/03/30 02:13:57;;;;;;;0.10;0.10;;;8.70;99.90;;;;;;5075223;28;20124;-74
2022/03/30 02:16:24;;;;;;;0.60;0.60;;;8.50;99.90;;;;;;5075383;28;20089;-74
2022/03/30 02:18:50;;;;;;;0.10;0.10;;;8.60;99.90;;;;;;5075168;28;20076;-74
2022/03/30 02:21:16;;;;;;;0.75;0.52;;;8.60;99.90;;;;;;5074757;28;20037;-74
2022/03/30 02:23:45;;;;;;;0.15;0.15;;;8.70;99.90;;;;;;5075048;28;20147;-74
2022/03/30 02:26:11;;;;;;;0.17;0.17;;;8.60;99.90;;;;;;5074592;28;20032;-74
2022/03/30 02:28:37;;;;;;;1.73;1.08;;;8.70;99.90;;;;;;5074857;28;20116;-74
2022/03/30 02:31:03;;;;;;;0.00;0.00;;;8.70;99.90;;;;;;5074679;28;20499;-74
2022/03/30 02:33:29;;;;;;;0.20;0.20;;;8.70;99.90;;;;;;5074830;28;20040;-74
2022/03/30 02:35:54;;;;;;;0.20;0.20;;;8.70;99.90;;;;;;5074854;28;20032;-74
2022/03/30 02:38:20;;;;;;;0.30;0.30;;;8.70;99.90;;;;;;5073962;28;20097;-74
2022/03/30 02:40:46;;;;;;;0.10;0.10;;;8.60;99.90;;;;;;5074561;28;20047;-74
2022/03/30 02:43:16;;;;;;;2.45;1.60;;;8.60;99.90;;;;;;5074971;28;20127;-75
2022/03/30 02:45:42;;;;;;;0.15;0.15;;;8.50;99.90;;;;;;5074811;28;20127;-74
2022/03/30 02:48:22;;;;;;;0.22;0.22;;;8.60;99.90;;;;;;5074383;28;20507;-75
2022/03/30 02:50:54;;;;;;;0.00;0.00;;;8.60;99.90;;;;;;5075083;28;20071;-74
2022/03/30 02:53:20;;;;;;;0.10;0.10;;;8.50;99.90;;;;;;5074495;28;20259;-74
2022/03/30 02:55:47;;;;;;;0.10;0.10;;;8.60;99.90;;;;;;5074669;28;20036;-74
2022/03/30 02:58:14;;;;;;;0.10;0.10;;;8.60;99.90;;;;;;5074561;28;20040;-74
2022/03/30 03:00:41;;;;;;;0.10;0.10;;;8.60;99.90;;;;;;5074815;28;20036;-74
2022/03/30 03:03:10;;;;;;;0.10;0.10;;;8.60;99.90;;;;;;5074929;28;20036;-74
2022/03/30 03:05:37;;;;;;;0.20;0.20;;;8.60;99.90;;;;;;5074607;28;20070;-75
2022/03/30 03:08:05;;;;;;;0.10;0.10;;;8.60;99.90;;;;;;5074017;28;20040;-74
2022/03/30 03:10:34;;;;;;;0.10;0.10;;;8.60;99.90;;;;;;5074282;28;20090;-74
2022/03/30 03:13:03;;;;;;;0.22;0.22;;;8.60;99.90;;;;;;5074398;28;20128;-74
2022/03/30 03:15:30;;;;;;;0.10;0.10;;;8.50;99.90;;;;;;5074361;28;20046;-74
2022/03/30 03:17:57;;;;;;;0.10;0.10;;;8.50;99.90;;;;;;5074189;28;20040;-75
2022/03/30 03:20:24;;;;;;;5.15;0.25;;;8.50;99.90;;;;;;5074113;28;20039;-74
2022/03/30 03:22:50;;;;;;;0.22;0.22;;;8.50;99.90;;;;;;5074115;28;20063;-75
2022/03/30 03:25:16;;;;;;;0.10;0.10;;;8.60;99.90;;;;;;5074121;28;20029;-74
2022/03/30 03:27:42;;;;;;;0.10;0.10;;;8.50;99.90;;;;;;5073664;28;20032;-75
2022/03/30 03:30:09;;;;;;;0.10;0.10;;;8.60;99.90;;;;;;5074083;28;20505;-75
2022/03/30 03:32:35;;;;;;;0.38;0.38;;;8.50;99.90;;;;;;5074096;28;20563;-75
2022/03/30 03:35:01;;;;;;;0.10;0.10;;;8.60;99.90;;;;;;5074018;28;20040;-75
2022/03/30 03:37:27;;;;;;;0.10;0.10;;;8.60;99.90;;;;;;5073785;28;20052;-75
2022/03/30 03:39:53;;;;;;;0.10;0.10;;;8.50;99.90;;;;;;5073696;28;20406;-74
2022/03/30 03:42:19;;;;;;;0.10;0.10;;;8.40;99.90;;;;;;5074106;28;20045;-74
2022/03/30 03:44:45;;;;;;;0.22;0.22;;;8.40;99.90;;;;;;5073825;28;20110;-75
2022/03/30 03:47:11;;;;;;;0.22;0.22;;;8.40;99.90;;;;;;5074005;28;20075;-74
2022/03/30 03:49:37;;;;;;;0.28;0.28;;;8.40;99.90;;;;;;5073228;28;20430;-75
2022/03/30 03:52:04;;;;;;;0.10;0.10;;;8.50;99.90;;;;;;5077725;28;20048;-74
2022/03/30 03:54:30;;;;;;;0.20;0.20;;;8.60;99.90;;;;;;5077157;28;20048;-75
2022/03/30 03:56:56;;;;;;;0.30;0.30;;;8.50;99.90;;;;;;5072216;28;20045;-74
2022/03/30 03:59:22;;;;;;;0.10;0.10;;;8.40;99.90;;;;;;5065560;28;20049;-74
2022/03/30 04:01:49;;;;;;;0.10;0.10;;;8.40;99.90;;;;;;5057372;28;20041;-75
2022/03/30 04:04:15;;;;;;;0.22;0.22;;;8.50;99.90;;;;;;5062810;28;20036;-75
2022/03/30 04:06:41;;;;;;;0.22;0.22;;;8.50;99.90;;;;;;5097787;28;20040;-75
2022/03/30 04:09:07;;;;;;;0.32;0.32;;;8.40;99.90;;;;;;5089781;28;20043;-75
2022/03/30 04:11:33;;;;;;;0.15;0.15;;;8.50;99.90;;;;;;5097416;28;20059;-75
2022/03/30 04:13:59;;;;;;;1.00;0.65;;;8.40;99.90;;;;;;5055444;28;20122;-75
2022/03/30 04:16:25;;;;;;;0.10;0.10;;;8.40;99.90;;;;;;5077056;28;20040;-74
2022/03/30 04:18:50;;;;;;;0.55;0.55;;;8.50;99.90;;;;;;5074062;28;20181;-75
2022/03/30 04:21:16;;;;;;;0.10;0.10;;;8.40;99.90;;;;;;5076585;28;20047;-74
2022/03/30 04:23:42;;;;;;;0.95;0.70;;;8.40;99.90;;;;;;5077115;28;20044;-75
2022/03/30 04:26:12;;;;;;;0.20;0.20;;;8.40;99.90;;;;;;5077185;28;20062;-75
2022/03/30 04:28:40;;;;;;;0.55;0.47;;;8.40;99.90;;;;;;5072150;28;20052;-75
2022/03/30 04:31:08;;;;;;;0.10;0.10;;;8.50;99.90;;;;;;5076018;28;20106;-75
2022/03/30 04:33:35;;;;;;;0.10;0.10;;;8.50;99.90;;;;;;5085536;28;20441;-75
2022/03/30 04:36:01;;;;;;;0.32;0.32;;;8.40;99.90;;;;;;5061328;28;20132;-76
2022/03/30 04:38:27;;;;;;;0.28;0.20;;;8.40;99.90;;;;;;5066131;28;20470;-76
2022/03/30 04:40:53;;;;;;;0.20;0.20;;;8.40;99.90;;;;;;5078850;28;20032;-75
2022/03/30 04:43:19;;;;;;;0.13;0.13;;;8.40;99.90;;;;;;5095276;28;20038;-75
2022/03/30 04:45:44;;;;;;;0.20;0.20;;;8.40;99.90;;;;;;5075344;28;20060;-75
2022/03/30 04:48:10;;;;;;;0.10;0.10;;;8.40;99.90;;;;;;5075114;28;20048;-75
2022/03/30 04:50:36;;;;;;;1.77;0.50;;;8.40;99.90;;;;;;5075310;28;20123;-75
2022/03/30 04:53:02;;;;;;;0.15;0.15;;;8.30;99.90;;;;;;5075856;28;20506;-75
2022/03/30 04:55:28;;;;;;;0.65;0.65;;;8.30;99.90;;;;;;5081504;28;20054;-73
2022/03/30 04:58:04;;;;;;;0.20;0.20;;;8.30;99.90;;;;;;5061488;28;20044;-76
2022/03/30 05:00:31;;;;;;;0.20;0.20;;;8.40;99.90;;;;;;5074837;28;20465;-76
2022/03/30 05:03:03;;;;;;;0.10;0.10;;;8.40;99.90;;;;;;5076426;28;20032;-76
2022/03/30 05:05:29;;;;;;;0.30;0.30;;;8.50;99.90;;;;;;5058370;28;20127;-76
2022/03/30 05:07:56;;;;;;;0.52;0.52;;;8.40;99.90;;;;;;5071101;28;20048;-76
2022/03/30 05:10:22;;;;;;;0.40;0.25;;;8.40;99.90;;;;;;5061114;28;20037;-76
2022/03/30 05:12:48;;;;;;;0.10;0.10;;;8.40;99.90;;;;;;5076237;28;20033;-76
2022/03/30 05:15:24;;;;;;;0.65;0.30;;;8.40;99.90;;;;;;5076232;28;20044;-75
2022/03/30 05:17:50;;;;;;;0.17;0.17;;;8.50;99.90;;;;;;5076065;28;20052;-76
2022/03/30 05:20:17;;;;;;;0.10;0.10;;;8.40;99.90;;;;;;5055780;28;20028;-76
2022/03/30 05:22:44;;;;;;;1.55;1.08;;;8.40;99.90;;;;;;5072113;28;20044;-76
2022/03/30 05:25:11;;;;;;;0.10;0.10;;;8.40;99.90;;;;;;5070420;28;20608;-76
2022/03/30 05:27:39;;;;;;;0.20;0.20;;;8.40;99.90;;;;;;5055495;28;20037;-76
2022/03/30 05:30:07;;;;;;;0.20;0.20;;;8.40;99.90;;;;;;5062086;28;20063;-76
2022/03/30 05:32:34;;;;;;;0.22;0.22;;;8.30;99.90;;;;;;5076174;28;20059;-76
2022/03/30 05:35:00;;;;;;;0.30;0.30;;;8.30;99.90;;;;;;5073538;28;20036;-77
2022/03/30 05:37:27;;;;;;;0.22;0.22;;;8.40;99.90;;;;;;5075401;28;20033;-76
2022/03/30 05:39:53;;;;;;;0.10;0.10;;;8.40;99.90;;;;;;5073346;28;20038;-76
2022/03/30 05:42:23;;;;;;;0.40;0.40;;;8.40;99.90;;;;;;5075638;28;20068;-76
2022/03/30 05:44:50;;;;;;;0.17;0.17;;;8.50;99.90;;;;;;5075377;28;20064;-76
2022/03/30 05:47:16;;;;;;;0.20;0.20;;;8.30;99.90;;;;;;5062257;28;20052;-77
2022/03/30 05:49:42;;;;;;;0.47;0.47;;;8.40;99.90;;;;;;5063822;28;20076;-76
2022/03/30 05:52:08;;;;;;;0.30;0.30;;;8.50;99.90;;;;;;5074846;28;20069;-76
2022/03/30 05:54:35;;;;;;;0.20;0.20;;;8.40;99.90;;;;;;5068293;28;20037;-77
2022/03/30 05:57:01;;;;;;;0.15;0.15;;;8.40;99.90;;;;;;5054857;28;20043;-76
2022/03/30 05:59:32;;;;;;;0.52;0.52;;;8.40;99.90;;;;;;5063832;28;20049;-76
2022/03/30 06:01:59;;;;;;;0.22;0.22;;;8.50;99.90;;;;;;5062351;28;20064;-76
2022/03/30 06:04:25;;;;;;;0.50;0.50;;;8.50;99.90;;;;;;5075259;28;20123;-76
2022/03/30 06:06:51;;;;;;;0.30;0.30;;;8.50;99.90;;;;;;5074807;28;20037;-75
2022/03/30 06:09:18;;;;;;;0.32;0.32;;;8.40;99.90;;;;;;5068776;28;21469;-73
2022/03/30 06:11:44;;;;;;;0.10;0.10;;;8.50;99.90;;;;;;5070831;28;20045;-74
2022/03/30 06:14:10;;;;;;;0.10;0.10;;;8.50;99.90;;;;;;5073509;28;20033;-74
2022/03/30 06:16:37;;;;;;;0.10;0.10;;;8.60;99.90;;;;;;5068530;28;20040;-74
2022/03/30 06:19:03;;;;;;;0.10;0.10;;;8.60;99.90;;;;;;5055446;28;20052;-75
2022/03/30 06:21:30;;;;;;;0.10;0.10;;;8.60;99.90;;;;;;5053940;28;20068;-76
2022/03/30 06:23:58;;;;;;;0.10;0.10;;;8.60;99.90;;;;;;5054789;28;20534;-76
2022/03/30 06:26:25;;;;;;;0.20;0.20;;;8.70;99.90;;;;;;5058459;28;20044;-75
2022/03/30 06:28:51;;;;;;;0.35;0.35;;;8.60;99.90;;;;;;5072763;28;20052;-73
2022/03/30 06:31:17;;;;;;;0.40;0.40;;;8.60;99.90;;;;;;5074268;28;20040;-73
2022/03/30 06:33:48;;;;;;;0.10;0.10;;;8.50;99.90;;;;;;5054293;28;20041;-76
2022/03/30 06:36:15;;;;;;;0.20;0.20;;;8.50;99.90;;;;;;5061371;28;20040;-76
2022/03/30 06:38:44;;;;;;;0.20;0.20;;;8.60;99.90;;;;;;5074370;28;20076;-76
2022/03/30 06:41:12;;;;;;;0.10;0.10;;;8.50;99.90;;;;;;5072121;28;20040;-76
2022/03/30 06:43:42;;;;;;;0.20;0.20;;;8.60;99.90;;;;;;5074587;28;20097;-77
2022/03/30 06:46:09;;;;;;;0.25;0.25;;;8.70;99.90;;;;;;5074699;28;20122;-76
2022/03/30 06:48:35;;;;;;;1.27;0.95;;;8.70;99.90;;;;;;5074642;28;20073;-76
2022/03/30 06:51:01;;;;;;;0.00;0.00;;;8.70;99.90;;;;;;5073503;28;20052;-77
2022/03/30 06:53:27;;;;;;;0.20;0.20;;;8.70;99.90;;;;;;5074618;28;20364;-77
2022/03/30 06:55:53;;;;;;;0.20;0.20;;;8.70;99.90;;;;;;5074278;28;20082;-74
2022/03/30 06:58:19;;;;;;;0.25;0.25;;;8.80;99.90;;;;;;5074821;28;20052;-80
2022/03/30 07:00:45;;;;;;;0.10;0.10;;;8.90;99.90;;;;;;5070046;28;20094;-75
2022/03/30 07:03:11;;;;;;;0.43;0.43;;;9.00;99.90;;;;;;5072221;28;20040;-75
2022/03/30 07:05:38;;;;;;;0.28;0.28;;;9.10;99.90;;;;;;5073878;28;20050;-77
2022/03/30 07:10:48;;;;;;;0.10;0.10;;;9.20;99.90;;;;;;5062004;28;20441;-76
2022/03/30 07:13:14;;;;;;;0.13;0.13;;;9.40;99.90;;;;;;5054425;28;20096;-77
2022/03/30 07:15:41;;;;;;;0.20;0.20;;;9.50;99.90;;;;;;5054410;28;20115;-76
2022/03/30 07:18:08;;;;;;;0.28;0.28;;;9.50;99.90;;;;;;5054387;28;20036;-73
2022/03/30 07:20:35;;;;;;;0.20;0.20;;;9.60;99.90;;;;;;5057342;28;20059;-76
2022/03/30 07:23:01;;;;;;;0.40;0.40;;;9.60;99.90;;;;;;5059038;28;20515;-76
2022/03/30 07:25:30;;;;;;;0.10;0.10;;;9.70;99.90;;;;;;5073533;28;20037;-76
2022/03/30 07:28:02;;;;;;;0.60;0.60;;;9.80;98.20;;;;;;5064358;28;20052;-76
2022/03/30 07:30:30;;;;;;;0.13;0.13;;;9.90;95.20;;;;;;5062834;28;20083;-77
2022/03/30 07:32:57;;;;;;;0.10;0.10;;;9.90;85.20;;;;;;5059678;28;20047;-76
2022/03/30 07:35:27;;;;;;;0.10;0.10;;;9.90;80.80;;;;;;5071483;28;20040;-77
2022/03/30 07:37:53;;;;;;;0.95;0.55;;;9.90;80.30;;;;;;5075666;28;20513;-76
2022/03/30 07:40:22;;;;;;;1.00;0.30;;;9.90;82.40;;;;;;5072154;28;20046;-76
2022/03/30 07:42:49;;;;;;;0.20;0.20;;;9.90;83.80;;;;;;5074091;28;20068;-77
2022/03/30 07:45:16;;;;;;;0.10;0.10;;;10.00;91.80;;;;;;5072724;28;20047;-76
2022/03/30 07:47:43;;;;;;;0.10;0.10;;;9.90;98.80;;;;;;5060420;28;20045;-76
2022/03/30 07:50:10;;;;;;;0.10;0.10;;;10.00;95.60;;;;;;5075650;28;20076;-76
2022/03/30 07:52:36;;;;;;;3.28;1.10;;;10.10;83.80;;;;;;5076131;28;20041;-71
2022/03/30 07:55:04;;;;;;;0.20;0.20;;;10.10;80.40;;;;;;5076683;28;20407;-79
2022/03/30 07:57:30;;;;;;;0.10;0.10;;;10.10;91.50;;;;;;5068822;28;20067;-73
2022/03/30 07:59:58;;;;;;;0.75;0.75;;;10.20;90.50;;;;;;5073674;28;20036;-74
2022/03/30 08:02:25;;;;;;;0.10;0.10;;;10.30;83.00;;;;;;5076701;28;20044;-74
2022/03/30 08:04:51;;;;;;;0.10;0.10;;;10.30;65.10;;;;;;5077585;28;20070;-74
2022/03/30 08:07:18;;;;;;;0.93;0.90;;;10.20;74.80;;;;;;5076606;28;20052;-74
2022/03/30 08:09:45;;;;;;;0.10;0.10;;;10.30;78.60;;;;;;5076802;28;20036;-74
2022/03/30 08:12:12;;;;;;;0.10;0.10;;;10.40;60.70;;;;;;5076480;28;20044;-74
2022/03/30 08:14:38;;;;;;;0.10;0.10;;;10.60;60.90;;;;;;5077045;28;20089;-74
2022/03/30 08:17:05;;;;;;;0.47;0.47;;;10.50;95.50;;;;;;5077110;28;20036;-74
2022/03/30 08:19:31;;;;;;;0.20;0.20;;;10.70;45.70;;;;;;5058589;28;20037;-74
2022/03/30 08:24:46;;;;;;;0.15;0.15;;;10.90;29.80;;;;;;5057378;28;20071;-74
2022/03/30 08:27:17;;;;;;;0.20;0.20;;;10.60;48.70;;;;;;5057102;28;20120;-73
2022/03/30 08:29:46;;;;;;;0.13;0.13;;;10.70;75.50;;;;;;5056693;28;20037;-74
2022/03/30 08:32:14;;;;;;;0.22;0.22;;;11.10;35.50;;;;;;5068685;28;20078;-73
2022/03/30 08:34:41;;;;;;;0.20;0.20;;;10.90;19.40;;;;;;5076007;28;20032;-73
2022/03/30 08:37:07;;;;;;;0.20;0.20;;;11.30;16.80;;;;;;5076562;28;20113;-73
2022/03/30 08:39:34;;;;;;;0.15;0.15;;;10.90;29.90;;;;;;5077128;28;20044;-73
2022/03/30 08:42:01;;;;;;;0.88;0.82;;;10.80;18.20;;;;;;5069159;28;20045;-73
2022/03/30 08:44:27;;;;;;;0.20;0.20;;;11.00;23.40;;;;;;5057845;28;20048;-73
2022/03/30 08:46:53;;;;;;;1.17;0.75;;;11.30;36.80;;;;;;5076616;28;20036;-73
2022/03/30 08:49:20;;;;;;;0.17;0.17;;;11.30;20.80;;;;;;5076306;28;20387;-73
2022/03/30 08:51:47;;;;;;;0.45;0.45;;;11.50;17.00;;;;;;5069939;28;20582;-73
2022/03/30 08:54:15;;;;;;;0.28;0.28;;;11.90;8.00;;;;;;5057015;28;20102;-74
2022/03/30 08:56:41;;;;;;;0.20;0.20;;;12.00;4.60;;;;;;5063486;28;20041;-73
2022/03/30 08:59:10;;;;;;;5.15;1.45;;;12.10;3.00;;;;;;5056827;28;20045;-73
2022/03/30 09:01:38;;;;;;;0.20;0.20;;;12.30;12.30;;;;;;5056976;28;20060;-74
2022/03/30 09:04:08;;;;;;;0.32;0.32;;;12.60;1.00;;;;;;5056119;28;20044;-74
2022/03/30 09:06:49;;;;;;;0.30;0.30;;;12.50;1.00;;;;;;5061323;28;20041;-74
2022/03/30 09:09:25;;;;;;;0.98;0.75;;;12.80;1.00;;;;;;5056579;28;20071;-73
2022/03/30 09:11:55;;;;;;;0.10;0.10;;;13.00;1.00;;;;;;5065869;28;20036;-73
2022/03/30 09:14:29;;;;;;;0.75;0.75;;;13.20;1.00;;;;;;5075489;28;20036;-73
2022/03/30 09:17:01;;;;;;;0.25;0.25;;;13.40;1.00;;;;;;5075714;28;20089;-74
2022/03/30 09:19:28;;;;;;;0.20;0.20;;;13.30;1.00;;;;;;5068719;28;20499;-74
2022/03/30 09:21:58;;;;;;;0.15;0.15;;;13.60;1.00;;;;;;5064785;28;20036;-73
2022/03/30 09:24:25;;;;;;;;;;;13.80;1.00;;;;;;5076157;28;20055;-74
2022/03/30 09:26:52;;;;;;;0.10;0.10;;;13.70;1.00;;;;;;5075278;28;19958;-74
2022/03/30 09:29:22;;;;;;;0.65;0.65;;;13.70;1.00;;;;;;5075155;28;20062;-73
2022/03/30 09:31:49;;;;;;;0.30;0.30;;;13.70;1.00;;;;;;5065198;28;20041;-73
2022/03/30 09:34:15;;;;;;;0.57;0.57;;;13.60;1.00;;;;;;5055464;28;20039;-73
2022/03/30 09:36:43;;;;;;;0.10;0.10;;;13.30;1.00;;;;;;5055350;28;20045;-74
2022/03/30 09:39:27;;;;;;;0.73;0.73;;;13.20;1.00;;;;;;5063583;28;20049;-74
2022/03/30 09:41:54;;;;;;;0.30;0.30;;;13.40;1.00;;;;;;5075166;28;20040;-73
2022/03/30 09:44:21;;;;;;;0.20;0.20;;;13.40;1.00;;;;;;5075602;28;20039;-74
2022/03/30 09:47:08;;;;;;;1.75;1.05;;;13.60;1.00;;;;;;5074779;28;20097;-74
2022/03/30 09:50:06;;;;;;;0.28;0.28;;;13.20;1.00;;;;;;5075796;28;20493;-74
2022/03/30 09:52:33;;;;;;;0.45;0.45;;;13.60;1.00;;;;;;5049388;28;20037;-74
2022/03/30 09:55:02;;;;;;;0.45;0.45;;;13.40;1.00;;;;;;5054852;28;20063;-74
2022/03/30 09:57:37;;;;;;;0.40;0.40;;;13.60;1.00;;;;;;5054866;28;20037;-74
2022/03/30 10:00:14;;;;;;;0.50;0.50;;;13.20;1.00;;;;;;5055584;28;20044;-74
2022/03/30 10:02:45;;;;;;;0.52;0.52;;;13.10;1.00;;;;;;5055276;28;20033;-74
2022/03/30 10:05:12;;;;;;;;;;;13.30;1.00;;;;;;5055445;28;20041;-74
2022/03/30 10:07:38;;;;;;;0.20;0.20;;;13.20;1.00;;;;;;5054979;28;20347;-74
2022/03/30 10:10:06;;;;;;;0.60;0.60;;;13.20;1.00;;;;;;5056671;28;20106;-74
2022/03/30 10:12:32;;;;;;;0.30;0.30;;;13.30;1.00;;;;;;5068463;28;20118;-72
2022/03/30 10:14:58;;;;;;;0.20;0.20;;;13.20;1.00;;;;;;5074400;28;20033;-73
2022/03/30 10:17:25;;;;;;;0.30;0.30;;;13.50;1.00;;;;;;5063004;28;20044;-73
2022/03/30 10:19:57;;;;;;;0.35;0.35;;;13.70;1.00;;;;;;5064916;28;20041;-72
2022/03/30 10:22:26;;;;;;;0.40;0.40;;;13.70;1.00;;;;;;5073523;28;20522;-73
2022/03/30 10:25:02;;;;;;;0.10;0.10;;;13.40;1.00;;;;;;5072808;28;20071;-73
2022/03/30 10:27:43;;;;;;;0.35;0.25;;;13.40;1.00;;;;;;5074228;28;20564;-73
2022/03/30 10:30:11;;;;;;;;;;;13.50;1.00;;;;;;5075674;28;20040;-73
2022/03/30 10:32:38;;;;;;;0.10;0.10;;;13.00;1.00;;;;;;5072955;28;19939;-73
2022/03/30 10:35:11;;;;;;;0.10;0.10;;;13.20;1.00;;;;;;5074740;28;20040;-72
2022/03/30 10:37:42;;;;;;;0.20;0.20;;;13.10;1.00;;;;;;5074778;28;20028;-72
2022/03/30 10:40:16;;;;;;;0.38;0.38;;;12.80;1.00;;;;;;5069720;28;20071;-72
2022/03/30 10:42:53;;;;;;;0.20;0.20;;;13.10;1.00;;;;;;5057877;28;20086;-72
2022/03/30 10:45:30;;;;;;;0.40;0.40;;;13.20;1.00;;;;;;5054452;28;20045;-72
2022/03/30 10:48:19;;;;;;;0.52;0.52;;;12.80;1.00;;;;;;5068065;28;20043;-72
2022/03/30 10:50:45;;;;;;;0.20;0.20;;;12.70;1.00;;;;;;5072692;28;20036;-71
2022/03/30 10:53:29;;;;;;;0.45;0.40;;;12.80;1.00;;;;;;5074725;28;20111;-71
2022/03/30 10:56:16;;;;;;;0.40;0.40;;;12.70;1.00;;;;;;5074736;28;20037;-72
2022/03/30 10:58:55;;;;;;;0.60;0.60;;;12.60;1.00;;;;;;5069211;28;20047;-72
2022/03/30 11:01:27;;;;;;;0.15;0.15;;;12.70;1.00;;;;;;5078519;28;20044;-72
2022/03/30 11:04:06;;;;;;;0.35;0.35;;;13.00;1.00;;;;;;5078870;28;20465;-72
2022/03/30 11:06:39;;;;;;;3.53;0.45;;;13.00;1.00;;;;;;5068860;28;20443;-73
2022/03/30 11:09:09;;;;;;;0.20;0.20;;;13.30;1.00;;;;;;5069788;28;20040;-73
2022/03/30 11:11:43;;;;;;;5.40;1.00;;;13.50;1.00;;;;;;5092363;28;20174;-73
2022/03/30 11:14:27;;;;;;;0.43;0.43;;;13.50;1.00;;;;;;5077576;28;20038;-73
2022/03/30 11:17:03;;;;;;;0.38;0.38;;;13.80;1.00;;;;;;5057489;28;20421;-74
2022/03/30 11:19:55;;;;;;;0.63;0.63;;;14.20;1.00;;;;;;5078415;28;20068;-73
2022/03/30 11:22:36;;;;;;;0.20;0.20;;;14.60;1.00;;;;;;5063172;28;20049;-73
2022/03/30 11:25:22;;;;;;;0.40;0.40;;;15.00;1.00;;;;;;5058654;28;20130;-73
2022/03/30 11:27:57;;;;;;;5.15;1.38;;;15.20;1.00;;;;;;5069357;28;20040;-73
2022/03/30 11:30:24;;;;;;;0.30;0.30;;;15.80;1.00;;;;;;5077800;28;20066;-73
2022/03/30 11:32:49;;;;;;;3.42;0.57;;;15.50;1.00;;;;;;5072840;28;20037;-73
2022/03/30 11:35:17;;;;;;;0.20;0.20;;;16.10;1.00;;;;;;5063436;28;20044;-74
2022/03/30 11:38:05;;;;;;;0.20;0.20;;;16.10;1.00;;;;;;5060448;28;20094;-73
2022/03/30 11:40:39;;;;;;;0.30;0.30;;;15.90;1.00;;;;;;5050778;28;20362;-72
2022/03/30 11:43:05;;;;;;;0.20;0.20;;;16.30;1.00;;;;;;5077632;28;20094;-72
2022/03/30 11:45:32;;;;;;;0.57;0.57;;;16.00;1.00;;;;;;5076325;28;20067;-72
2022/03/30 11:48:07;;;;;;;0.20;0.20;;;16.10;1.00;;;;;;5076503;28;20036;-71
2022/03/30 11:50:45;;;;;;;0.85;0.60;;;15.90;1.00;;;;;;5066330;28;20044;-72
2022/03/30 11:53:19;;;;;;;0.50;0.50;;;15.90;1.00;;;;;;5077062;28;20032;-72
2022/03/30 11:55:54;;;;;;;0.35;0.35;;;15.10;1.00;;;;;;5068498;28;20087;-72
2022/03/30 11:58:35;;;;;;;0.25;0.25;;;15.20;1.00;;;;;;5059990;28;20037;-72
2022/03/30 12:01:06;;;;;;;0.25;0.25;;;14.90;1.00;;;;;;5076939;28;20039;-72
2022/03/30 12:03:34;;;;;;;0.68;0.68;;;14.50;1.00;;;;;;5085555;28;20036;-72
2022/03/30 12:06:06;;;;;;;0.55;0.55;;;14.30;1.00;;;;;;5085237;28;20060;-72
2022/03/30 12:08:51;;;;;;;0.43;0.43;;;14.20;1.00;;;;;;5078126;28;20039;-72
2022/03/30 12:11:20;;;;;;;0.35;0.35;;;14.70;1.00;;;;;;5094015;28;20043;-72
2022/03/30 12:13:52;;;;;;;0.28;0.28;;;14.20;1.00;;;;;;5096677;28;20039;-73
2022/03/30 12:16:19;;;;;;;0.98;0.32;;;14.90;1.00;;;;;;5096010;28;20040;-72
2022/03/30 12:18:46;;;;;;;0.10;0.10;;;14.80;1.00;;;;;;5097442;28;20031;-72
2022/03/30 12:21:14;;;;;;;0.47;0.47;;;15.20;1.00;;;;;;5075606;28;20063;-75
2022/03/30 12:24:04;;;;;;;3.10;1.48;;;15.20;1.00;;;;;;5069907;28;20461;-75
2022/03/30 12:26:31;;;;;;;0.50;0.50;;;15.30;1.00;;;;;;5076801;28;20120;-74
2022/03/30 12:29:04;;;;;;;0.30;0.30;;;15.40;1.00;;;;;;5075281;28;20445;-74
2022/03/30 12:31:39;;;;;;;0.63;0.63;;;15.50;1.00;;;;;;5071320;28;20110;-75
2022/03/30 12:34:13;;;;;;;0.65;0.63;;;15.40;1.00;;;;;;5067019;28;20029;-75
2022/03/30 12:36:54;;;;;;;0.88;0.88;;;15.70;1.00;;;;;;5074218;28;20560;-73
2022/03/30 12:39:28;;;;;;;0.80;0.80;;;15.40;1.00;;;;;;5059640;28;20062;-74
2022/03/30 12:42:17;;;;;;;0.65;0.65;;;15.20;1.00;;;;;;5061422;28;20506;-75
2022/03/30 12:44:49;;;;;;;0.57;0.57;;;14.80;1.00;;;;;;5055940;28;20528;-73
2022/03/30 12:47:34;;;;;;;1.55;1.08;;;14.70;1.00;;;;;;5056278;28;20037;-74
2022/03/30 12:50:24;;;;;;;1.10;1.00;;;14.20;1.00;;;;;;5059156;28;20048;-74
2022/03/30 12:52:53;;;;;;;0.30;0.30;;;14.40;1.00;;;;;;5066873;28;20098;-74
2022/03/30 12:55:30;;;;;;;0.75;0.75;;;14.90;1.00;;;;;;5063951;28;20025;-75
2022/03/30 12:58:00;;;;;;;0.63;0.63;;;15.10;1.00;;;;;;5063648;28;20033;-74
2022/03/30 13:00:31;;;;;;;0.75;0.70;;;15.20;1.00;;;;;;5065062;28;20182;-74
2022/03/30 13:03:14;;;;;;;0.35;0.35;;;15.20;1.00;;;;;;5058423;28;20410;-74
2022/03/30 13:05:42;;;;;;;0.60;0.60;;;15.10;1.00;;;;;;5061393;28;20048;-75
2022/03/30 13:08:21;;;;;;;0.38;0.38;;;14.80;1.00;;;;;;5062119;28;20044;-75
2022/03/30 13:10:52;;;;;;;0.50;0.50;;;14.90;1.00;;;;;;5066234;28;20040;-75
2022/03/30 13:13:21;;;;;;;7.57;1.17;;;15.00;1.00;;;;;;5056027;28;20049;-74
2022/03/30 13:15:47;;;;;;;0.90;0.90;;;14.70;1.00;;;;;;5063932;28;20503;-75
2022/03/30 13:18:19;;;;;;;0.45;0.45;;;14.70;1.00;;;;;;5069023;28;20492;-75